METAR & TAF

RJTY 262217Z AUTO 36005KT 3SM BR OVC004 18/18 A2972 RMK AO2
RJTY 262211Z AUTO 36004KT 2 1/2SM BR OVC003 18/18 A2971 RMK AO2
RJTY 262202Z AUTO 36006KT 2 1/2SM BR OVC004 18/18 A2971 RMK AO2 VIS 2V2 1/2
RJTY 262200Z AUTO 01005KT 2 1/2SM BR OVC003 18/18 A2971 RMK AO2 VIS 2V2 1/2
RJTY 262158Z AUTO 01005KT 2SM BR OVC003 18/18 A2971 RMK AO2 DZE16 SLP061 P0000 T01780176
RJTY 262136Z AUTO 36004KT 2SM BR BKN003 18/18 A2970 RMK AO2 DZE16
RJTY 262134Z AUTO 36004KT 1 3/4SM BR BKN003 18/18 A2970 RMK AO2 DZE16
RJTY 262122Z AUTO 34005KT 1 3/4SM BR BKN002 18/18 A2970 RMK AO2 DZE16
RJTY 262116Z AUTO 34004KT 1 3/4SM BR BKN003 18/18 A2970 RMK AO2 DZE16 BKN V OVC
RJTY 262106Z AUTO 35004KT 1 3/4SM -DZ BR OVC003 18/18 A2970 RMK AO2
RJTY 262058Z AUTO 33005KT 1 1/2SM -DZ BR OVC003 18/18 A2969 RMK AO2 DZB51 SLP055 P0000 60000 T01770176 53008
RJTY 262051Z AUTO 00000KT 1 1/2SM -DZ BR OVC003 18/18 A2969 RMK AO2 DZB51
RJTY 262046Z AUTO 00000KT 1 1/4SM BR OVC003 18/18 A2969 RMK AO2
RJTY 262044Z AUTO 00000KT 1 1/2SM BR OVC003 18/18 A2969 RMK AO2
RJTY 262032Z AUTO 00000KT 1 1/2SM BR OVC004 18/17 A2969 RMK AO2
RJTY 262002Z AUTO 12003KT 1 1/4SM BR OVC004 17/17 A2967 RMK AO2
RJTY 262000Z AUTO 12004KT 1 1/2SM BR OVC004 17/17 A2967 RMK AO2
RJTY 261958Z AUTO 13003KT 1 1/2SM BR OVC003 17/17 A2967 RMK AO2 DZB01E11 SLP048 P0000 T01740172
RJTY 261941Z AUTO VRB03KT 1 1/2SM BR OVC003 17/17 A2967 RMK AO2 VIS 1 1/2V2 1/2 DZB01E11
RJTY 261939Z AUTO 00000KT 1 3/4SM R18/5500FT BR OVC003 17/17 A2967 RMK AO2 VIS 1 3/4V2 1/2 DZB01E11
RJTY 261937Z AUTO 11003KT 1 3/4SM R18/5000FT BR OVC003 17/17 A2967 RMK AO2 VIS 1 3/4V2 1/2 DZB01E11
RJTY 261935Z AUTO 13003KT 2SM R18/4000FT BR OVC003 17/17 A2967 RMK AO2 VIS 2V2 1/2 DZB01E11
RJTY 261929Z AUTO 11004KT 2 1/2SM R18/3500FT BR OVC003 17/17 A2967 RMK AO2 VIS 2V2 1/2 DZB01E11
RJTY 261919Z AUTO 11003KT 2SM R18/3500FT BR OVC003 17/17 A2967 RMK AO2 VIS 2V2 1/2 DZB01E11
RJTY 261911Z AUTO 10003KT 2 1/2SM R18/3500FT BR OVC003 17/17 A2967 RMK AO2 DZB01E11
RJTY 261901Z AUTO 00000KT 2 1/2SM R18/3500FT -DZ BR OVC003 17/17 A2967 RMK AO2 VIS 2 1/2V3 DZB01
RJTY 261900Z AUTO 00000KT 2 1/2SM R18/3500FT BR OVC003 17/17 A2967 RMK AO2 VIS 2 1/2V3
RJTY 261858Z AUTO 00000KT 3SM R18/3500FT BR OVC003 17/17 A2967 RMK AO2 DZB12E28DZB39E49 SLP048 P0000 T01730171
RJTY 261857Z AUTO 00000KT 3SM R18/3500FT BR OVC003 17/17 A2967 RMK AO2 DZB12E28DZB39E49
RJTY 261855Z AUTO 00000KT 3SM R18/4000FT BR OVC003 17/17 A2967 RMK AO2 DZB12E28DZB39E49
RJTY 261849Z AUTO 00000KT 3SM R18/3500FT BR OVC003 17/17 A2966 RMK AO2 DZB12E28DZB39E49
RJTY 261843Z AUTO 00000KT 3SM R18/3500FT -DZ BR OVC003 17/17 A2966 RMK AO2 DZB12E28DZB39
RJTY 261839Z AUTO 00000KT 3SM R18/4000FT -DZ BR OVC003 17/17 A2967 RMK AO2 DZB12E28DZB39
RJTY 261835Z AUTO VRB03KT 3SM R18/4500FT BR OVC003 17/17 A2967 RMK AO2 DZB12E28
RJTY 261831Z AUTO 00000KT 3SM R18/4500FT BR OVC004 17/17 A2967 RMK AO2 DZB12E28
RJTY 261828Z AUTO 00000KT 3SM R36/4500FT BR OVC003 17/17 A2967 RMK AO2 DZB12E28
RJTY 261827Z AUTO 00000KT 3SM R36/4000FT BR OVC003 17/17 A2967 RMK AO2 DZB12E27
RJTY 261812Z AUTO 00000KT 4SM R18/4000FT -DZ BR OVC004 17/17 A2967 RMK AO2 DZB12
RJTY 261800Z AUTO 11004KT 4SM R18/4500FT BR OVC004 17/17 A2967 RMK AO2
RJTY 261758Z AUTO 09004KT 4SM R18/4500FT BR OVC005 17/17 A2967 RMK AO2 DZE11 SLP048 P0001 60015 T01720170 10176 20172 57010
RJTY 261735Z AUTO 10003KT 4SM R18/4000FT BR OVC005 17/17 A2967 RMK AO2 DZE11

TAF RJTY 262100Z 2621/2803 VRB06KT 8000 BR OVC004 QNH2965INS
  TEMPO 2621/2702 OVC009
  BECMG 2701/2702 VRB06KT 9999 VCSH FEW005 BKN015 QNH2980INS
  BECMG 2705/2706 01006KT 9999 NSW SCT009 BKN016 QNH2980INS TX22/2703Z TN16/2718Z